sensor_id;sensor_type;location;lat;lon;timestamp;P1;durP1;ratioP1;P2;durP2;ratioP2
25952;SDS011;13750;50.804;8.764;2023-08-21T00:01:13;6.33;;;5.83;;
25952;SDS011;13750;50.804;8.764;2023-08-21T00:03:38;6.60;;;6.00;;
25952;SDS011;13750;50.804;8.764;2023-08-21T00:06:04;8.13;;;7.33;;
25952;SDS011;13750;50.804;8.764;2023-08-21T00:08:29;8.13;;;7.43;;
25952;SDS011;13750;50.804;8.764;2023-08-21T00:10:55;7.13;;;6.50;;
25952;SDS011;13750;50.804;8.764;2023-08-21T00:13:20;7.10;;;6.50;;
25952;SDS011;13750;50.804;8.764;2023-08-21T00:15:46;6.37;;;5.87;;
25952;SDS011;13750;50.804;8.764;2023-08-21T00:18:12;6.77;;;6.17;;
25952;SDS011;13750;50.804;8.764;2023-08-21T00:20:37;7.07;;;6.37;;
25952;SDS011;13750;50.804;8.764;2023-08-21T00:23:04;6.78;;;6.18;;
25952;SDS011;13750;50.804;8.764;2023-08-21T00:25:29;6.57;;;6.00;;
25952;SDS011;13750;50.804;8.764;2023-08-21T00:27:55;6.43;;;5.83;;
25952;SDS011;13750;50.804;8.764;2023-08-21T00:30:20;5.97;;;5.40;;
25952;SDS011;13750;50.804;8.764;2023-08-21T00:32:46;6.80;;;6.10;;
25952;SDS011;13750;50.804;8.764;2023-08-21T00:35:11;6.40;;;5.80;;
25952;SDS011;13750;50.804;8.764;2023-08-21T00:37:37;6.27;;;5.77;;
25952;SDS011;13750;50.804;8.764;2023-08-21T00:40:03;6.17;;;5.60;;
25952;SDS011;13750;50.804;8.764;2023-08-21T00:42:29;5.85;;;5.35;;
25952;SDS011;13750;50.804;8.764;2023-08-21T00:44:54;6.30;;;5.70;;
25952;SDS011;13750;50.804;8.764;2023-08-21T00:47:20;6.43;;;5.83;;
25952;SDS011;13750;50.804;8.764;2023-08-21T00:49:45;6.77;;;6.17;;
25952;SDS011;13750;50.804;8.764;2023-08-21T00:52:12;5.37;;;4.93;;
25952;SDS011;13750;50.804;8.764;2023-08-21T00:54:39;5.80;;;5.30;;
25952;SDS011;13750;50.804;8.764;2023-08-21T00:57:05;5.75;;;5.25;;
25952;SDS011;13750;50.804;8.764;2023-08-21T00:59:31;5.60;;;5.00;;
25952;SDS011;13750;50.804;8.764;2023-08-21T01:01:56;6.30;;;5.80;;
25952;SDS011;13750;50.804;8.764;2023-08-21T01:04:22;6.83;;;6.00;;
25952;SDS011;13750;50.804;8.764;2023-08-21T01:06:48;6.83;;;6.23;;
25952;SDS011;13750;50.804;8.764;2023-08-21T01:09:17;6.40;;;5.80;;
25952;SDS011;13750;50.804;8.764;2023-08-21T01:14:43;7.28;;;5.88;;
25952;SDS011;13750;50.804;8.764;2023-08-21T01:17:25;6.50;;;5.90;;
25952;SDS011;13750;50.804;8.764;2023-08-21T01:19:53;5.97;;;5.47;;
25952;SDS011;13750;50.804;8.764;2023-08-21T01:22:20;5.97;;;5.38;;
25952;SDS011;13750;50.804;8.764;2023-08-21T01:24:49;5.72;;;5.25;;
25952;SDS011;13750;50.804;8.764;2023-08-21T01:27:15;5.60;;;5.10;;
25952;SDS011;13750;50.804;8.764;2023-08-21T01:29:41;6.30;;;5.80;;
25952;SDS011;13750;50.804;8.764;2023-08-21T01:34:46;7.40;;;6.80;;
25952;SDS011;13750;50.804;8.764;2023-08-21T01:37:14;6.93;;;6.15;;
25952;SDS011;13750;50.804;8.764;2023-08-21T01:39:40;7.43;;;6.40;;
25952;SDS011;13750;50.804;8.764;2023-08-21T01:42:06;7.05;;;6.05;;
25952;SDS011;13750;50.804;8.764;2023-08-21T01:44:31;6.57;;;6.07;;
25952;SDS011;13750;50.804;8.764;2023-08-21T01:46:57;6.93;;;6.27;;
25952;SDS011;13750;50.804;8.764;2023-08-21T01:49:22;5.83;;;5.33;;
25952;SDS011;13750;50.804;8.764;2023-08-21T01:51:48;5.57;;;5.13;;
25952;SDS011;13750;50.804;8.764;2023-08-21T01:54:14;5.80;;;5.30;;
25952;SDS011;13750;50.804;8.764;2023-08-21T01:56:39;6.13;;;5.53;;
25952;SDS011;13750;50.804;8.764;2023-08-21T01:59:05;5.30;;;4.80;;
25952;SDS011;13750;50.804;8.764;2023-08-21T02:03:58;5.25;;;4.78;;
25952;SDS011;13750;50.804;8.764;2023-08-21T02:06:23;5.10;;;4.70;;
25952;SDS011;13750;50.804;8.764;2023-08-21T02:08:49;4.60;;;4.20;;
25952;SDS011;13750;50.804;8.764;2023-08-21T02:11:14;4.50;;;4.10;;
25952;SDS011;13750;50.804;8.764;2023-08-21T02:13:40;4.90;;;4.50;;
25952;SDS011;13750;50.804;8.764;2023-08-21T02:16:05;4.17;;;3.77;;
25952;SDS011;13750;50.804;8.764;2023-08-21T02:18:31;4.65;;;4.25;;
25952;SDS011;13750;50.804;8.764;2023-08-21T02:20:57;4.60;;;4.20;;
25952;SDS011;13750;50.804;8.764;2023-08-21T02:23:23;3.93;;;3.53;;
25952;SDS011;13750;50.804;8.764;2023-08-21T02:25:49;4.15;;;3.75;;
25952;SDS011;13750;50.804;8.764;2023-08-21T02:28:15;4.40;;;4.00;;
25952;SDS011;13750;50.804;8.764;2023-08-21T02:30:40;4.17;;;3.80;;
25952;SDS011;13750;50.804;8.764;2023-08-21T02:33:07;4.80;;;4.40;;
25952;SDS011;13750;50.804;8.764;2023-08-21T02:35:32;5.20;;;4.80;;
25952;SDS011;13750;50.804;8.764;2023-08-21T02:37:58;4.93;;;4.53;;
25952;SDS011;13750;50.804;8.764;2023-08-21T02:40:24;5.30;;;4.80;;
25952;SDS011;13750;50.804;8.764;2023-08-21T02:42:49;4.83;;;4.43;;
25952;SDS011;13750;50.804;8.764;2023-08-21T02:45:15;5.32;;;4.90;;
25952;SDS011;13750;50.804;8.764;2023-08-21T02:47:41;5.37;;;4.97;;
25952;SDS011;13750;50.804;8.764;2023-08-21T02:52:34;4.68;;;4.28;;
25952;SDS011;13750;50.804;8.764;2023-08-21T02:55:00;4.95;;;4.55;;
25952;SDS011;13750;50.804;8.764;2023-08-21T02:57:26;5.65;;;4.20;;
25952;SDS011;13750;50.804;8.764;2023-08-21T02:59:53;4.80;;;4.40;;
25952;SDS011;13750;50.804;8.764;2023-08-21T03:02:18;4.80;;;4.40;;
25952;SDS011;13750;50.804;8.764;2023-08-21T03:04:44;4.13;;;3.83;;
25952;SDS011;13750;50.804;8.764;2023-08-21T03:07:10;4.80;;;4.40;;
25952;SDS011;13750;50.804;8.764;2023-08-21T03:09:36;3.97;;;3.60;;
25952;SDS011;13750;50.804;8.764;2023-08-21T03:12:02;4.97;;;4.57;;
25952;SDS011;13750;50.804;8.764;2023-08-21T03:14:28;5.00;;;4.43;;
25952;SDS011;13750;50.804;8.764;2023-08-21T03:16:54;4.27;;;3.87;;
25952;SDS011;13750;50.804;8.764;2023-08-21T03:19:20;4.57;;;4.17;;
25952;SDS011;13750;50.804;8.764;2023-08-21T03:21:45;4.30;;;3.90;;
25952;SDS011;13750;50.804;8.764;2023-08-21T03:24:11;4.93;;;4.03;;
25952;SDS011;13750;50.804;8.764;2023-08-21T03:26:36;4.80;;;4.40;;
25952;SDS011;13750;50.804;8.764;2023-08-21T03:29:02;5.47;;;4.97;;
25952;SDS011;13750;50.804;8.764;2023-08-21T03:31:28;5.37;;;4.87;;
25952;SDS011;13750;50.804;8.764;2023-08-21T03:36:20;5.38;;;4.78;;
25952;SDS011;13750;50.804;8.764;2023-08-21T03:38:45;5.50;;;5.00;;
25952;SDS011;13750;50.804;8.764;2023-08-21T03:41:11;4.90;;;4.50;;
25952;SDS011;13750;50.804;8.764;2023-08-21T03:43:37;5.17;;;4.70;;
25952;SDS011;13750;50.804;8.764;2023-08-21T03:46:03;4.17;;;3.87;;
25952;SDS011;13750;50.804;8.764;2023-08-21T03:48:28;4.55;;;4.15;;
25952;SDS011;13750;50.804;8.764;2023-08-21T03:50:54;3.90;;;3.60;;
25952;SDS011;13750;50.804;8.764;2023-08-21T03:53:20;3.57;;;3.27;;
25952;SDS011;13750;50.804;8.764;2023-08-21T03:55:45;3.07;;;2.80;;
25952;SDS011;13750;50.804;8.764;2023-08-21T03:58:11;3.20;;;2.90;;
25952;SDS011;13750;50.804;8.764;2023-08-21T04:00:38;3.22;;;2.92;;
25952;SDS011;13750;50.804;8.764;2023-08-21T04:03:04;2.93;;;2.63;;
25952;SDS011;13750;50.804;8.764;2023-08-21T04:05:29;3.03;;;2.80;;
25952;SDS011;13750;50.804;8.764;2023-08-21T04:07:55;3.60;;;3.30;;
25952;SDS011;13750;50.804;8.764;2023-08-21T04:10:20;3.20;;;2.90;;
25952;SDS011;13750;50.804;8.764;2023-08-21T04:12:46;3.17;;;2.87;;
25952;SDS011;13750;50.804;8.764;2023-08-21T04:15:11;3.23;;;2.93;;
25952;SDS011;13750;50.804;8.764;2023-08-21T04:17:37;3.27;;;3.07;;
25952;SDS011;13750;50.804;8.764;2023-08-21T04:20:03;3.93;;;3.27;;
25952;SDS011;13750;50.804;8.764;2023-08-21T04:22:29;3.08;;;2.83;;
25952;SDS011;13750;50.804;8.764;2023-08-21T04:24:54;2.90;;;2.70;;
25952;SDS011;13750;50.804;8.764;2023-08-21T04:27:20;3.30;;;3.10;;
25952;SDS011;13750;50.804;8.764;2023-08-21T04:29:46;3.37;;;2.93;;
25952;SDS011;13750;50.804;8.764;2023-08-21T04:32:11;3.77;;;3.37;;
25952;SDS011;13750;50.804;8.764;2023-08-21T04:34:37;3.42;;;3.13;;
25952;SDS011;13750;50.804;8.764;2023-08-21T04:37:03;3.30;;;3.00;;
25952;SDS011;13750;50.804;8.764;2023-08-21T04:39:29;3.72;;;3.20;;
25952;SDS011;13750;50.804;8.764;2023-08-21T04:41:55;4.03;;;3.63;;
25952;SDS011;13750;50.804;8.764;2023-08-21T04:44:21;3.20;;;2.93;;
25952;SDS011;13750;50.804;8.764;2023-08-21T04:46:47;4.40;;;4.00;;
25952;SDS011;13750;50.804;8.764;2023-08-21T04:49:13;3.60;;;3.30;;
25952;SDS011;13750;50.804;8.764;2023-08-21T04:51:39;3.50;;;3.20;;
25952;SDS011;13750;50.804;8.764;2023-08-21T04:54:04;3.37;;;3.07;;
25952;SDS011;13750;50.804;8.764;2023-08-21T04:56:30;3.60;;;3.30;;
25952;SDS011;13750;50.804;8.764;2023-08-21T04:58:55;3.37;;;3.07;;
25952;SDS011;13750;50.804;8.764;2023-08-21T05:01:21;4.23;;;3.83;;
25952;SDS011;13750;50.804;8.764;2023-08-21T05:03:46;3.80;;;3.50;;
25952;SDS011;13750;50.804;8.764;2023-08-21T05:06:12;3.37;;;3.07;;
25952;SDS011;13750;50.804;8.764;2023-08-21T05:08:37;3.57;;;3.27;;
25952;SDS011;13750;50.804;8.764;2023-08-21T05:11:03;3.43;;;3.23;;
25952;SDS011;13750;50.804;8.764;2023-08-21T05:13:28;3.63;;;3.33;;
25952;SDS011;13750;50.804;8.764;2023-08-21T05:15:57;3.40;;;3.10;;
25952;SDS011;13750;50.804;8.764;2023-08-21T05:18:23;3.63;;;3.33;;
25952;SDS011;13750;50.804;8.764;2023-08-21T05:20:50;4.35;;;3.80;;
25952;SDS011;13750;50.804;8.764;2023-08-21T05:23:17;4.07;;;3.45;;
25952;SDS011;13750;50.804;8.764;2023-08-21T05:25:43;3.83;;;3.50;;
25952;SDS011;13750;50.804;8.764;2023-08-21T05:28:09;4.32;;;3.88;;
25952;SDS011;13750;50.804;8.764;2023-08-21T05:30:37;4.10;;;3.47;;
25952;SDS011;13750;50.804;8.764;2023-08-21T05:33:03;3.80;;;3.50;;
25952;SDS011;13750;50.804;8.764;2023-08-21T05:35:32;4.80;;;3.67;;
25952;SDS011;13750;50.804;8.764;2023-08-21T05:38:05;4.25;;;3.20;;
25952;SDS011;13750;50.804;8.764;2023-08-21T05:40:31;2.92;;;2.70;;
25952;SDS011;13750;50.804;8.764;2023-08-21T05:42:57;3.20;;;2.90;;
25952;SDS011;13750;50.804;8.764;2023-08-21T05:45:23;2.80;;;2.60;;
25952;SDS011;13750;50.804;8.764;2023-08-21T05:47:48;2.80;;;2.60;;
25952;SDS011;13750;50.804;8.764;2023-08-21T05:50:14;2.73;;;2.53;;
25952;SDS011;13750;50.804;8.764;2023-08-21T05:52:39;2.83;;;2.63;;
25952;SDS011;13750;50.804;8.764;2023-08-21T05:55:05;3.30;;;3.00;;
25952;SDS011;13750;50.804;8.764;2023-08-21T05:57:31;3.97;;;3.37;;
25952;SDS011;13750;50.804;8.764;2023-08-21T05:59:56;2.97;;;2.57;;
25952;SDS011;13750;50.804;8.764;2023-08-21T06:02:22;2.73;;;2.53;;
25952;SDS011;13750;50.804;8.764;2023-08-21T06:04:48;2.85;;;2.65;;
25952;SDS011;13750;50.804;8.764;2023-08-21T06:07:14;2.80;;;2.50;;
25952;SDS011;13750;50.804;8.764;2023-08-21T06:09:39;2.43;;;2.23;;
25952;SDS011;13750;50.804;8.764;2023-08-21T06:12:06;2.20;;;2.00;;
25952;SDS011;13750;50.804;8.764;2023-08-21T06:14:31;2.40;;;2.20;;
25952;SDS011;13750;50.804;8.764;2023-08-21T06:17:00;2.73;;;2.53;;
25952;SDS011;13750;50.804;8.764;2023-08-21T06:19:27;2.47;;;2.28;;
25952;SDS011;13750;50.804;8.764;2023-08-21T06:21:56;3.55;;;3.08;;
25952;SDS011;13750;50.804;8.764;2023-08-21T06:24:22;3.25;;;2.83;;
25952;SDS011;13750;50.804;8.764;2023-08-21T06:26:48;3.63;;;3.20;;
25952;SDS011;13750;50.804;8.764;2023-08-21T06:29:14;3.65;;;3.38;;
25952;SDS011;13750;50.804;8.764;2023-08-21T06:31:40;3.87;;;3.57;;
25952;SDS011;13750;50.804;8.764;2023-08-21T06:34:05;4.10;;;3.70;;
25952;SDS011;13750;50.804;8.764;2023-08-21T06:36:31;3.73;;;3.40;;
25952;SDS011;13750;50.804;8.764;2023-08-21T06:38:56;4.13;;;3.73;;
25952;SDS011;13750;50.804;8.764;2023-08-21T06:41:22;3.63;;;3.33;;
25952;SDS011;13750;50.804;8.764;2023-08-21T06:43:49;3.67;;;3.38;;
25952;SDS011;13750;50.804;8.764;2023-08-21T06:46:15;3.40;;;3.10;;
25952;SDS011;13750;50.804;8.764;2023-08-21T06:48:40;5.20;;;4.13;;
25952;SDS011;13750;50.804;8.764;2023-08-21T06:51:07;4.05;;;3.60;;
25952;SDS011;13750;50.804;8.764;2023-08-21T06:53:32;4.77;;;3.50;;
25952;SDS011;13750;50.804;8.764;2023-08-21T06:55:58;3.37;;;3.00;;
25952;SDS011;13750;50.804;8.764;2023-08-21T06:58:23;3.67;;;3.37;;
25952;SDS011;13750;50.804;8.764;2023-08-21T07:00:49;3.87;;;3.57;;
25952;SDS011;13750;50.804;8.764;2023-08-21T07:03:14;3.20;;;2.90;;
25952;SDS011;13750;50.804;8.764;2023-08-21T07:05:40;3.27;;;2.67;;
25952;SDS011;13750;50.804;8.764;2023-08-21T07:08:06;3.40;;;3.10;;
25952;SDS011;13750;50.804;8.764;2023-08-21T07:10:37;3.60;;;3.30;;
25952;SDS011;13750;50.804;8.764;2023-08-21T07:13:03;3.55;;;3.20;;
25952;SDS011;13750;50.804;8.764;2023-08-21T07:15:29;3.70;;;3.40;;
25952;SDS011;13750;50.804;8.764;2023-08-21T07:17:55;3.88;;;2.90;;
25952;SDS011;13750;50.804;8.764;2023-08-21T07:20:21;2.90;;;2.70;;
25952;SDS011;13750;50.804;8.764;2023-08-21T07:22:46;3.28;;;2.97;;
25952;SDS011;13750;50.804;8.764;2023-08-21T07:25:12;3.37;;;3.07;;
25952;SDS011;13750;50.804;8.764;2023-08-21T07:27:38;2.78;;;2.58;;
25952;SDS011;13750;50.804;8.764;2023-08-21T07:30:05;2.50;;;2.30;;
25952;SDS011;13750;50.804;8.764;2023-08-21T07:32:31;2.20;;;2.00;;
25952;SDS011;13750;50.804;8.764;2023-08-21T07:34:57;2.63;;;2.43;;
25952;SDS011;13750;50.804;8.764;2023-08-21T07:37:23;2.00;;;1.80;;
25952;SDS011;13750;50.804;8.764;2023-08-21T07:39:48;1.90;;;1.77;;
25952;SDS011;13750;50.804;8.764;2023-08-21T07:42:14;2.03;;;1.83;;
25952;SDS011;13750;50.804;8.764;2023-08-21T07:44:40;2.27;;;2.07;;
25952;SDS011;13750;50.804;8.764;2023-08-21T07:47:06;1.73;;;1.63;;
25952;SDS011;13750;50.804;8.764;2023-08-21T07:49:32;1.77;;;1.67;;
25952;SDS011;13750;50.804;8.764;2023-08-21T07:51:58;1.70;;;1.60;;
25952;SDS011;13750;50.804;8.764;2023-08-21T07:54:23;1.50;;;1.40;;
25952;SDS011;13750;50.804;8.764;2023-08-21T07:56:49;2.50;;;1.50;;
25952;SDS011;13750;50.804;8.764;2023-08-21T07:59:15;2.25;;;2.00;;
25952;SDS011;13750;50.804;8.764;2023-08-21T08:01:41;2.33;;;2.13;;
25952;SDS011;13750;50.804;8.764;2023-08-21T08:04:07;2.80;;;2.27;;
25952;SDS011;13750;50.804;8.764;2023-08-21T08:06:33;2.22;;;2.03;;
25952;SDS011;13750;50.804;8.764;2023-08-21T08:08:59;2.20;;;2.00;;
25952;SDS011;13750;50.804;8.764;2023-08-21T08:11:24;1.90;;;1.80;;
25952;SDS011;13750;50.804;8.764;2023-08-21T08:13:50;2.30;;;2.10;;
25952;SDS011;13750;50.804;8.764;2023-08-21T08:16:16;2.10;;;1.90;;
25952;SDS011;13750;50.804;8.764;2023-08-21T08:18:42;1.60;;;1.50;;
25952;SDS011;13750;50.804;8.764;2023-08-21T08:21:07;1.42;;;1.33;;
25952;SDS011;13750;50.804;8.764;2023-08-21T08:23:34;1.33;;;1.23;;
25952;SDS011;13750;50.804;8.764;2023-08-21T08:25:59;2.55;;;1.70;;
25952;SDS011;13750;50.804;8.764;2023-08-21T08:28:25;3.13;;;2.27;;
25952;SDS011;13750;50.804;8.764;2023-08-21T08:30:51;2.40;;;2.20;;
25952;SDS011;13750;50.804;8.764;2023-08-21T08:33:16;2.20;;;2.03;;
25952;SDS011;13750;50.804;8.764;2023-08-21T08:35:42;2.90;;;2.70;;
25952;SDS011;13750;50.804;8.764;2023-08-21T08:38:08;2.90;;;2.70;;
25952;SDS011;13750;50.804;8.764;2023-08-21T08:40:34;2.78;;;2.55;;
25952;SDS011;13750;50.804;8.764;2023-08-21T08:43:05;2.85;;;2.63;;
25952;SDS011;13750;50.804;8.764;2023-08-21T08:45:31;3.60;;;3.30;;
25952;SDS011;13750;50.804;8.764;2023-08-21T08:47:59;2.40;;;2.20;;
25952;SDS011;13750;50.804;8.764;2023-08-21T08:50:28;2.40;;;2.20;;
25952;SDS011;13750;50.804;8.764;2023-08-21T08:52:56;2.10;;;1.90;;
25952;SDS011;13750;50.804;8.764;2023-08-21T08:55:23;2.58;;;2.38;;
25952;SDS011;13750;50.804;8.764;2023-08-21T08:57:49;2.50;;;2.30;;
25952;SDS011;13750;50.804;8.764;2023-08-21T09:00:15;2.50;;;2.30;;
25952;SDS011;13750;50.804;8.764;2023-08-21T09:02:41;3.17;;;2.40;;
25952;SDS011;13750;50.804;8.764;2023-08-21T09:05:06;3.33;;;3.03;;
25952;SDS011;13750;50.804;8.764;2023-08-21T09:07:33;4.00;;;3.38;;
25952;SDS011;13750;50.804;8.764;2023-08-21T09:09:59;3.30;;;3.00;;
25952;SDS011;13750;50.804;8.764;2023-08-21T09:12:25;3.53;;;3.22;;
25952;SDS011;13750;50.804;8.764;2023-08-21T09:14:51;3.30;;;3.00;;
25952;SDS011;13750;50.804;8.764;2023-08-21T09:17:17;2.87;;;2.67;;
25952;SDS011;13750;50.804;8.764;2023-08-21T09:19:43;2.65;;;2.45;;
25952;SDS011;13750;50.804;8.764;2023-08-21T09:22:13;3.33;;;2.78;;
25952;SDS011;13750;50.804;8.764;2023-08-21T09:24:41;3.22;;;2.92;;
25952;SDS011;13750;50.804;8.764;2023-08-21T09:27:34;3.67;;;3.33;;
25952;SDS011;13750;50.804;8.764;2023-08-21T09:30:03;3.50;;;3.20;;
25952;SDS011;13750;50.804;8.764;2023-08-21T09:32:55;3.42;;;3.05;;
25952;SDS011;13750;50.804;8.764;2023-08-21T09:35:25;3.15;;;2.85;;
25952;SDS011;13750;50.804;8.764;2023-08-21T09:37:51;3.40;;;3.10;;
25952;SDS011;13750;50.804;8.764;2023-08-21T09:40:20;3.15;;;2.85;;
25952;SDS011;13750;50.804;8.764;2023-08-21T09:42:51;3.47;;;3.10;;
25952;SDS011;13750;50.804;8.764;2023-08-21T09:45:22;3.17;;;2.97;;
25952;SDS011;13750;50.804;8.764;2023-08-21T09:47:52;2.42;;;2.22;;
25952;SDS011;13750;50.804;8.764;2023-08-21T09:50:18;2.30;;;2.10;;
25952;SDS011;13750;50.804;8.764;2023-08-21T09:52:45;2.40;;;2.20;;
25952;SDS011;13750;50.804;8.764;2023-08-21T09:57:38;2.57;;;2.37;;
25952;SDS011;13750;50.804;8.764;2023-08-21T10:00:04;2.38;;;2.17;;
25952;SDS011;13750;50.804;8.764;2023-08-21T10:02:43;2.55;;;2.35;;
25952;SDS011;13750;50.804;8.764;2023-08-21T10:05:17;2.50;;;2.27;;
25952;SDS011;13750;50.804;8.764;2023-08-21T10:10:13;2.75;;;2.55;;
25952;SDS011;13750;50.804;8.764;2023-08-21T10:12:39;2.55;;;2.35;;
25952;SDS011;13750;50.804;8.764;2023-08-21T10:15:05;4.77;;;3.47;;
25952;SDS011;13750;50.804;8.764;2023-08-21T10:17:34;3.65;;;3.20;;
25952;SDS011;13750;50.804;8.764;2023-08-21T10:22:38;3.33;;;3.00;;
25952;SDS011;13750;50.804;8.764;2023-08-21T10:25:18;2.78;;;2.50;;
25952;SDS011;13750;50.804;8.764;2023-08-21T10:27:48;2.88;;;2.67;;
25952;SDS011;13750;50.804;8.764;2023-08-21T10:30:15;3.95;;;2.65;;
25952;SDS011;13750;50.804;8.764;2023-08-21T10:32:48;2.78;;;2.50;;
25952;SDS011;13750;50.804;8.764;2023-08-21T10:35:15;3.13;;;2.20;;
25952;SDS011;13750;50.804;8.764;2023-08-21T10:38:08;2.72;;;2.53;;
25952;SDS011;13750;50.804;8.764;2023-08-21T10:40:39;2.25;;;2.05;;
25952;SDS011;13750;50.804;8.764;2023-08-21T10:46:03;1.77;;;1.58;;
25952;SDS011;13750;50.804;8.764;2023-08-21T10:48:28;2.60;;;2.40;;
25952;SDS011;13750;50.804;8.764;2023-08-21T10:50:54;3.07;;;2.40;;
25952;SDS011;13750;50.804;8.764;2023-08-21T10:53:20;2.20;;;2.00;;
25952;SDS011;13750;50.804;8.764;2023-08-21T10:55:55;2.72;;;2.53;;
25952;SDS011;13750;50.804;8.764;2023-08-21T10:58:21;2.47;;;2.20;;
25952;SDS011;13750;50.804;8.764;2023-08-21T11:00:46;2.50;;;1.95;;
25952;SDS011;13750;50.804;8.764;2023-08-21T11:03:12;1.52;;;1.42;;
25952;SDS011;13750;50.804;8.764;2023-08-21T11:05:40;1.95;;;1.60;;
25952;SDS011;13750;50.804;8.764;2023-08-21T11:08:05;1.40;;;1.30;;
25952;SDS011;13750;50.804;8.764;2023-08-21T11:12:58;1.17;;;1.08;;
25952;SDS011;13750;50.804;8.764;2023-08-21T11:15:28;1.30;;;1.20;;
25952;SDS011;13750;50.804;8.764;2023-08-21T11:17:58;1.17;;;1.00;;
25952;SDS011;13750;50.804;8.764;2023-08-21T11:20:30;1.23;;;1.13;;
25952;SDS011;13750;50.804;8.764;2023-08-21T11:22:57;1.17;;;1.08;;
25952;SDS011;13750;50.804;8.764;2023-08-21T11:25:24;1.30;;;1.20;;
25952;SDS011;13750;50.804;8.764;2023-08-21T11:27:49;1.58;;;1.05;;
25952;SDS011;13750;50.804;8.764;2023-08-21T11:30:15;1.10;;;1.00;;
25952;SDS011;13750;50.804;8.764;2023-08-21T11:32:41;1.27;;;1.17;;
25952;SDS011;13750;50.804;8.764;2023-08-21T11:35:06;1.27;;;1.17;;
25952;SDS011;13750;50.804;8.764;2023-08-21T11:37:32;1.15;;;1.05;;
25952;SDS011;13750;50.804;8.764;2023-08-21T11:39:58;1.27;;;1.07;;
25952;SDS011;13750;50.804;8.764;2023-08-21T11:42:31;1.00;;;0.90;;
25952;SDS011;13750;50.804;8.764;2023-08-21T11:44:58;0.90;;;0.90;;
25952;SDS011;13750;50.804;8.764;2023-08-21T11:47:29;1.30;;;1.20;;
25952;SDS011;13750;50.804;8.764;2023-08-21T11:49:56;0.80;;;0.80;;
25952;SDS011;13750;50.804;8.764;2023-08-21T11:52:22;0.90;;;0.80;;
25952;SDS011;13750;50.804;8.764;2023-08-21T11:54:53;0.80;;;0.80;;
25952;SDS011;13750;50.804;8.764;2023-08-21T11:57:19;1.08;;;0.95;;
25952;SDS011;13750;50.804;8.764;2023-08-21T11:59:49;2.13;;;1.60;;
25952;SDS011;13750;50.804;8.764;2023-08-21T12:02:22;1.50;;;1.40;;
25952;SDS011;13750;50.804;8.764;2023-08-21T12:04:58;2.25;;;1.83;;
25952;SDS011;13750;50.804;8.764;2023-08-21T12:07:28;1.73;;;1.52;;
25952;SDS011;13750;50.804;8.764;2023-08-21T12:09:54;1.60;;;1.48;;
25952;SDS011;13750;50.804;8.764;2023-08-21T12:12:19;1.57;;;1.37;;
25952;SDS011;13750;50.804;8.764;2023-08-21T12:14:45;2.40;;;1.90;;
25952;SDS011;13750;50.804;8.764;2023-08-21T12:17:11;1.75;;;1.63;;
25952;SDS011;13750;50.804;8.764;2023-08-21T12:19:36;2.10;;;1.77;;
25952;SDS011;13750;50.804;8.764;2023-08-21T12:22:03;1.90;;;1.70;;
25952;SDS011;13750;50.804;8.764;2023-08-21T12:26:55;1.75;;;1.55;;
25952;SDS011;13750;50.804;8.764;2023-08-21T12:29:20;1.70;;;1.60;;
25952;SDS011;13750;50.804;8.764;2023-08-21T12:31:46;2.10;;;1.90;;
25952;SDS011;13750;50.804;8.764;2023-08-21T12:34:12;1.63;;;1.52;;
25952;SDS011;13750;50.804;8.764;2023-08-21T12:36:38;2.08;;;1.80;;
25952;SDS011;13750;50.804;8.764;2023-08-21T12:39:04;2.78;;;2.45;;
25952;SDS011;13750;50.804;8.764;2023-08-21T12:41:30;2.80;;;2.47;;
25952;SDS011;13750;50.804;8.764;2023-08-21T12:43:58;2.53;;;2.33;;
25952;SDS011;13750;50.804;8.764;2023-08-21T12:46:28;3.15;;;2.50;;
25952;SDS011;13750;50.804;8.764;2023-08-21T12:51:20;2.00;;;1.75;;
25952;SDS011;13750;50.804;8.764;2023-08-21T12:53:45;2.10;;;1.90;;
25952;SDS011;13750;50.804;8.764;2023-08-21T12:56:11;2.57;;;2.33;;
25952;SDS011;13750;50.804;8.764;2023-08-21T12:58:37;2.00;;;1.85;;
25952;SDS011;13750;50.804;8.764;2023-08-21T13:01:02;2.65;;;2.45;;
25952;SDS011;13750;50.804;8.764;2023-08-21T13:03:32;2.67;;;2.33;;
25952;SDS011;13750;50.804;8.764;2023-08-21T13:05:58;2.30;;;2.10;;
25952;SDS011;13750;50.804;8.764;2023-08-21T13:08:24;3.00;;;2.70;;
25952;SDS011;13750;50.804;8.764;2023-08-21T13:10:49;4.13;;;2.78;;
25952;SDS011;13750;50.804;8.764;2023-08-21T13:13:15;4.33;;;3.07;;
25952;SDS011;13750;50.804;8.764;2023-08-21T13:15:41;3.72;;;3.33;;
25952;SDS011;13750;50.804;8.764;2023-08-21T13:18:09;3.00;;;2.58;;
25952;SDS011;13750;50.804;8.764;2023-08-21T13:20:35;2.75;;;2.55;;
25952;SDS011;13750;50.804;8.764;2023-08-21T13:23:01;2.40;;;2.20;;
25952;SDS011;13750;50.804;8.764;2023-08-21T13:25:26;3.03;;;2.73;;
25952;SDS011;13750;50.804;8.764;2023-08-21T13:27:52;3.33;;;2.92;;
25952;SDS011;13750;50.804;8.764;2023-08-21T13:30:18;3.55;;;3.25;;
25952;SDS011;13750;50.804;8.764;2023-08-21T13:32:44;3.25;;;2.95;;
25952;SDS011;13750;50.804;8.764;2023-08-21T13:35:10;2.95;;;2.75;;
25952;SDS011;13750;50.804;8.764;2023-08-21T13:37:36;2.70;;;2.50;;
25952;SDS011;13750;50.804;8.764;2023-08-21T13:40:03;2.92;;;2.28;;
25952;SDS011;13750;50.804;8.764;2023-08-21T13:42:37;2.63;;;2.22;;
25952;SDS011;13750;50.804;8.764;2023-08-21T13:45:05;2.67;;;2.40;;
25952;SDS011;13750;50.804;8.764;2023-08-21T13:47:32;2.85;;;2.60;;
25952;SDS011;13750;50.804;8.764;2023-08-21T13:49:57;2.80;;;2.50;;
25952;SDS011;13750;50.804;8.764;2023-08-21T13:52:24;2.30;;;2.10;;
25952;SDS011;13750;50.804;8.764;2023-08-21T13:54:49;2.38;;;2.17;;
25952;SDS011;13750;50.804;8.764;2023-08-21T13:57:15;2.33;;;2.00;;
25952;SDS011;13750;50.804;8.764;2023-08-21T13:59:40;2.33;;;2.00;;
25952;SDS011;13750;50.804;8.764;2023-08-21T14:02:06;2.30;;;1.83;;
25952;SDS011;13750;50.804;8.764;2023-08-21T14:04:32;1.67;;;1.58;;
25952;SDS011;13750;50.804;8.764;2023-08-21T14:06:57;2.85;;;1.83;;
25952;SDS011;13750;50.804;8.764;2023-08-21T14:09:23;2.03;;;1.83;;
25952;SDS011;13750;50.804;8.764;2023-08-21T14:11:49;1.90;;;1.70;;
25952;SDS011;13750;50.804;8.764;2023-08-21T14:14:14;3.53;;;2.60;;
25952;SDS011;13750;50.804;8.764;2023-08-21T14:16:40;2.33;;;2.13;;
25952;SDS011;13750;50.804;8.764;2023-08-21T14:19:05;3.33;;;2.25;;
25952;SDS011;13750;50.804;8.764;2023-08-21T14:21:31;2.00;;;1.80;;
25952;SDS011;13750;50.804;8.764;2023-08-21T14:23:56;1.80;;;1.70;;
25952;SDS011;13750;50.804;8.764;2023-08-21T14:26:22;1.93;;;1.77;;
25952;SDS011;13750;50.804;8.764;2023-08-21T14:28:47;2.35;;;1.80;;
25952;SDS011;13750;50.804;8.764;2023-08-21T14:31:15;2.47;;;1.90;;
25952;SDS011;13750;50.804;8.764;2023-08-21T14:33:41;2.40;;;1.48;;
25952;SDS011;13750;50.804;8.764;2023-08-21T14:36:07;2.63;;;1.77;;
25952;SDS011;13750;50.804;8.764;2023-08-21T14:38:33;1.83;;;1.55;;
25952;SDS011;13750;50.804;8.764;2023-08-21T14:40:59;2.38;;;1.98;;
25952;SDS011;13750;50.804;8.764;2023-08-21T14:43:25;2.53;;;2.10;;
25952;SDS011;13750;50.804;8.764;2023-08-21T14:45:50;1.88;;;1.73;;
25952;SDS011;13750;50.804;8.764;2023-08-21T14:48:16;1.77;;;1.67;;
25952;SDS011;13750;50.804;8.764;2023-08-21T14:50:42;2.10;;;1.70;;
25952;SDS011;13750;50.804;8.764;2023-08-21T14:53:07;2.15;;;1.92;;
25952;SDS011;13750;50.804;8.764;2023-08-21T14:55:33;1.65;;;1.55;;
25952;SDS011;13750;50.804;8.764;2023-08-21T14:57:59;2.53;;;2.00;;
25952;SDS011;13750;50.804;8.764;2023-08-21T15:00:30;1.70;;;1.52;;
25952;SDS011;13750;50.804;8.764;2023-08-21T15:02:56;1.88;;;1.77;;
25952;SDS011;13750;50.804;8.764;2023-08-21T15:05:21;1.83;;;1.58;;
25952;SDS011;13750;50.804;8.764;2023-08-21T15:07:47;1.60;;;1.38;;
25952;SDS011;13750;50.804;8.764;2023-08-21T15:10:12;2.13;;;1.45;;
25952;SDS011;13750;50.804;8.764;2023-08-21T15:12:38;2.08;;;1.77;;
25952;SDS011;13750;50.804;8.764;2023-08-21T15:15:04;3.70;;;1.60;;